Time;durP1;ratioP1;P1;durP2;ratioP2;P2;SDS_P1;SDS_P2;PMS_P1;PMS_P2;Temp;Humidity;BMP_temperature;BMP_pressure;BME280_temperature;BME280_humidity;BME280_pressure;Samples;Min_cycle;Max_cycle;Signal;HPM_P1;HPM_P2
2021/09/17 00:00:29;;;;;;;0.88;0.88;;;;;;;11.30;100.00;99830.97;5029891;28;20071;-56
2021/09/17 00:03:32;;;;;;;1.00;0.63;;;;;;;11.34;100.00;99826.72;5029303;28;20103;-55
2021/09/17 00:06:34;;;;;;;0.93;0.90;;;;;;;11.35;100.00;99827.47;5029444;28;21127;-56
2021/09/17 00:09:38;;;;;;;4.82;0.40;;;;;;;11.30;100.00;99825.38;5030481;28;20044;-55
2021/09/17 00:12:42;;;;;;;0.50;0.45;;;;;;;11.32;100.00;99823.66;5030230;28;20048;-55
2021/09/17 00:15:46;;;;;;;1.52;0.55;;;;;;;11.30;100.00;99814.97;5029914;28;20071;-56
2021/09/17 00:18:48;;;;;;;1.65;0.88;;;;;;;11.30;100.00;99812.19;5043210;28;20058;-56
2021/09/17 00:21:51;;;;;;;0.32;0.32;;;;;;;11.28;100.00;99806.34;5054580;28;20090;-54
2021/09/17 00:24:54;;;;;;;2.40;0.57;;;;;;;11.27;100.00;99798.47;5054681;28;20056;-55
2021/09/17 00:27:58;;;;;;;2.60;0.52;;;;;;;11.28;100.00;99805.59;5054295;28;20052;-55
2021/09/17 00:31:00;;;;;;;1.20;0.75;;;;;;;11.27;100.00;99798.47;5054513;28;20442;-55
2021/09/17 00:34:03;;;;;;;1.10;0.52;;;;;;;11.26;100.00;99794.16;5054735;28;20076;-55
2021/09/17 00:37:07;;;;;;;0.30;0.28;;;;;;;11.28;100.00;99794.44;5054917;28;20373;-55
2021/09/17 00:40:10;;;;;;;0.60;0.47;;;;;;;11.26;100.00;99794.91;5054704;28;20373;-55
2021/09/17 00:43:13;;;;;;;0.63;0.40;;;;;;;11.26;100.00;99785.78;5054560;28;20060;-54
2021/09/17 00:46:16;;;;;;;1.65;0.40;;;;;;;11.19;100.00;99783.38;5054676;28;20101;-56
2021/09/17 00:49:19;;;;;;;1.00;0.43;;;;;;;11.17;100.00;99780.31;5053949;28;20188;-56
2021/09/17 00:52:22;;;;;;;1.80;0.30;;;;;;;11.09;100.00;99781.94;5054152;28;20555;-56
2021/09/17 00:55:25;;;;;;;7.13;0.60;;;;;;;11.00;100.00;99773.69;5034227;28;20540;-56
2021/09/17 00:58:30;;;;;;;0.77;0.30;;;;;;;10.97;100.00;99771.84;5034261;28;20457;-55
2021/09/17 01:01:33;;;;;;;0.38;0.38;;;;;;;11.00;100.00;99768.84;5034410;28;20056;-55
2021/09/17 01:04:35;;;;;;;3.22;0.40;;;;;;;10.96;100.00;99761.97;5033964;28;20048;-56
2021/09/17 01:07:38;;;;;;;1.95;0.82;;;;;;;10.97;100.00;99766.28;5032316;28;20099;-55
2021/09/17 01:10:42;;;;;;;0.60;0.47;;;;;;;10.86;100.00;99760.50;5032361;28;20409;-55
2021/09/17 01:13:46;;;;;;;4.55;0.45;;;;;;;10.82;100.00;99757.91;5051524;28;20741;-56
2021/09/17 01:16:49;;;;;;;2.63;0.43;;;;;;;10.80;100.00;99754.06;5051765;28;20047;-56
2021/09/17 01:19:52;;;;;;;1.05;0.65;;;;;;;10.68;100.00;99758.66;5051977;28;20048;-55
2021/09/17 01:22:55;;;;;;;0.28;0.28;;;;;;;10.63;100.00;99756.56;5051819;28;20056;-55
2021/09/17 01:25:57;;;;;;;0.40;0.40;;;;;;;10.57;100.00;99747.31;5051858;28;20495;-55
2021/09/17 01:29:00;;;;;;;0.50;0.50;;;;;;;10.50;100.00;99745.66;5051764;28;20133;-55
2021/09/17 01:32:04;;;;;;;0.75;0.30;;;;;;;10.50;100.00;99742.88;5038211;28;20099;-55
2021/09/17 01:35:09;;;;;;;0.63;0.43;;;;;;;10.45;100.00;99740.78;5050902;28;20175;-56
2021/09/17 01:38:12;;;;;;;3.80;0.60;;;;;;;10.41;100.00;99740.22;5051181;28;20401;-55
2021/09/17 01:41:14;;;;;;;2.33;0.98;;;;;;;10.40;100.00;99738.66;5051625;28;20059;-55
2021/09/17 01:44:17;;;;;;;0.90;0.73;;;;;;;10.36;100.00;99740.84;5051505;28;20083;-55
2021/09/17 01:47:20;;;;;;;1.88;0.82;;;;;;;10.31;100.00;99735.19;5051597;28;20397;-56
2021/09/17 01:50:23;;;;;;;1.27;0.40;;;;;;;10.29;100.00;99735.66;5051401;28;20152;-55
2021/09/17 01:53:26;;;;;;;0.68;0.68;;;;;;;10.25;100.00;99731.50;5058757;28;20066;-56
2021/09/17 01:56:30;;;;;;;2.47;0.40;;;;;;;10.25;100.00;99732.28;5070897;28;20555;-55
2021/09/17 01:59:33;;;;;;;2.88;0.20;;;;;;;10.29;100.00;99726.53;5070451;28;20063;-55
2021/09/17 02:02:36;;;;;;;3.22;0.70;;;;;;;10.30;100.00;99723.28;5070823;28;20047;-55
2021/09/17 02:05:39;;;;;;;1.27;0.70;;;;;;;10.26;100.00;99717.13;5070892;28;20063;-55
2021/09/17 02:08:42;;;;;;;4.05;0.82;;;;;;;10.24;100.00;99714.06;5071022;28;20043;-55
2021/09/17 02:11:45;;;;;;;0.82;0.40;;;;;;;10.20;100.00;99713.47;5071191;28;20078;-55
2021/09/17 02:14:48;;;;;;;0.47;0.40;;;;;;;10.16;100.00;99718.44;5070638;28;20047;-55
2021/09/17 02:17:51;;;;;;;2.05;1.30;;;;;;;10.14;100.00;99717.38;5070906;28;20063;-55
2021/09/17 02:20:53;;;;;;;0.38;0.20;;;;;;;10.14;100.00;99715.38;5071232;28;20051;-55
2021/09/17 02:23:56;;;;;;;2.22;0.93;;;;;;;10.14;100.00;99712.59;5071004;28;20043;-55
2021/09/17 02:27:00;;;;;;;1.27;0.45;;;;;;;10.12;100.00;99701.16;5070804;28;20063;-55
2021/09/17 02:30:08;;;;;;;1.33;1.02;;;;;;;10.10;100.00;99706.41;5070018;28;20070;-55
2021/09/17 02:33:11;;;;;;;1.77;0.60;;;;;;;10.07;100.00;99699.00;5070480;28;20165;-55
2021/09/17 02:36:14;;;;;;;0.50;0.40;;;;;;;10.04;100.00;99688.84;5070907;28;20075;-55
2021/09/17 02:39:17;;;;;;;0.50;0.50;;;;;;;10.14;100.00;99695.88;5070619;28;20048;-54
2021/09/17 02:42:19;;;;;;;1.77;0.52;;;;;;;10.24;100.00;99689.03;5070842;28;20056;-55
2021/09/17 02:45:23;;;;;;;0.68;0.55;;;;;;;10.26;100.00;99694.09;5070400;28;20035;-55
2021/09/17 02:48:29;;;;;;;1.58;0.40;;;;;;;10.13;100.00;99680.44;5054306;28;20055;-56
2021/09/17 02:51:32;;;;;;;2.33;0.47;;;;;;;10.04;100.00;99683.28;5050640;28;20087;-56
2021/09/17 02:54:35;;;;;;;0.55;0.32;;;;;;;9.98;100.00;99687.19;5067550;28;20094;-55
2021/09/17 02:57:38;;;;;;;0.50;0.38;;;;;;;9.97;100.00;99683.63;5070843;28;20110;-55
2021/09/17 03:00:42;;;;;;;1.17;0.85;;;;;;;10.01;100.00;99680.66;5070357;28;20064;-55
2021/09/17 03:03:44;;;;;;;3.20;1.13;;;;;;;9.97;100.00;99669.72;5070057;28;20055;-56
2021/09/17 03:06:47;;;;;;;0.98;0.63;;;;;;;9.93;100.00;99660.81;5070153;28;20131;-55
2021/09/17 03:09:50;;;;;;;0.32;0.32;;;;;;;9.97;100.00;99672.50;5070384;28;20448;-56
2021/09/17 03:12:53;;;;;;;3.08;0.73;;;;;;;10.04;100.00;99663.81;5074139;28;20090;-56
2021/09/17 03:15:56;;;;;;;1.05;0.82;;;;;;;10.03;100.00;99659.47;5076311;28;20175;-56
2021/09/17 03:18:59;;;;;;;1.10;0.45;;;;;;;9.99;100.00;99653.31;5076209;28;20139;-55
2021/09/17 03:22:03;;;;;;;0.70;0.50;;;;;;;10.00;100.00;99659.66;5076418;28;20075;-56
2021/09/17 03:25:06;;;;;;;0.13;0.13;;;;;;;9.98;100.00;99651.81;5076190;28;20567;-55
2021/09/17 03:28:10;;;;;;;1.17;0.75;;;;;;;9.97;100.00;99643.91;5076229;28;20124;-55
2021/09/17 03:31:13;;;;;;;4.50;0.77;;;;;;;9.82;100.00;99644.66;5075660;28;20571;-56
2021/09/17 03:34:16;;;;;;;0.70;0.60;;;;;;;9.75;100.00;99644.25;5075285;28;20047;-56
2021/09/17 03:37:19;;;;;;;0.40;0.40;;;;;;;9.86;100.00;99650.03;5076006;28;20059;-56
2021/09/17 03:40:22;;;;;;;0.40;0.40;;;;;;;9.82;100.00;99643.88;5075923;28;20046;-56
2021/09/17 03:43:25;;;;;;;1.00;0.43;;;;;;;9.76;100.00;99634.66;5075601;28;20038;-55
2021/09/17 03:46:28;;;;;;;3.10;0.82;;;;;;;9.81;100.00;99631.25;5075692;28;20048;-56
2021/09/17 03:49:31;;;;;;;2.63;1.17;;;;;;;9.80;100.00;99629.69;5075906;28;20182;-56
2021/09/17 03:52:34;;;;;;;0.65;0.65;;;;;;;9.80;100.00;99626.91;5074926;28;20542;-56
2021/09/17 03:55:39;;;;;;;1.20;0.82;;;;;;;9.63;100.00;99631.38;5055456;28;20072;-56
2021/09/17 03:58:41;;;;;;;3.88;0.40;;;;;;;9.68;100.00;99625.16;5055351;28;20427;-56
2021/09/17 04:01:45;;;;;;;1.98;0.95;;;;;;;9.59;100.00;99622.44;5055670;28;20063;-56
2021/09/17 04:04:48;;;;;;;1.88;0.20;;;;;;;9.55;100.00;99613.53;5055329;28;20539;-56
2021/09/17 04:07:50;;;;;;;5.47;1.05;;;;;;;9.50;100.00;99622.50;5055294;28;20048;-55
2021/09/17 04:10:53;;;;;;;1.92;1.45;;;;;;;9.57;100.00;99616.59;5055466;28;20119;-56
2021/09/17 04:13:56;;;;;;;0.95;0.82;;;;;;;9.53;100.00;99608.41;5055411;28;20052;-56
2021/09/17 04:16:59;;;;;;;1.52;0.40;;;;;;;9.53;100.00;99611.19;5055208;28;20410;-56
2021/09/17 04:20:04;;;;;;;1.75;0.65;;;;;;;9.46;100.00;99606.00;5055262;28;20076;-55
2021/09/17 04:23:07;;;;;;;1.15;0.73;;;;;;;9.45;100.00;99615.59;5042028;28;20064;-56
2021/09/17 04:26:10;;;;;;;3.40;0.90;;;;;;;9.45;100.00;99621.13;5055035;28;20044;-56
2021/09/17 04:29:13;;;;;;;1.33;1.00;;;;;;;9.39;100.00;99619.47;5055192;28;20115;-56
2021/09/17 04:32:16;;;;;;;0.55;0.55;;;;;;;9.37;100.00;99616.41;5054801;28;20056;-56
2021/09/17 04:35:19;;;;;;;1.40;0.70;;;;;;;9.34;100.00;99618.13;5054870;28;20501;-56
2021/09/17 04:38:22;;;;;;;0.70;0.38;;;;;;;9.32;100.00;99600.38;5054222;28;20480;-55
2021/09/17 04:41:24;;;;;;;1.88;0.98;;;;;;;9.29;100.00;99604.13;5054233;28;20047;-56
2021/09/17 04:44:27;;;;;;;0.40;0.30;;;;;;;9.27;100.00;99606.59;5054539;28;20072;-56
2021/09/17 04:47:30;;;;;;;0.88;0.57;;;;;;;9.25;100.00;99600.75;5054798;28;20099;-56
2021/09/17 04:50:32;;;;;;;1.50;0.90;;;;;;;9.25;100.00;99606.31;5054545;28;20048;-56
2021/09/17 04:53:35;;;;;;;0.43;0.43;;;;;;;9.23;100.00;99595.66;5063208;28;20071;-56
2021/09/17 04:56:41;;;;;;;4.25;0.68;;;;;;;9.26;100.00;99603.06;5074328;28;20064;-56
2021/09/17 04:59:43;;;;;;;3.58;0.40;;;;;;;9.24;100.00;99597.19;5061704;28;20129;-56
2021/09/17 05:02:46;;;;;;;6.28;0.75;;;;;;;9.18;100.00;99597.06;5074315;28;20097;-56
2021/09/17 05:05:49;;;;;;;0.70;0.70;;;;;;;9.22;100.00;99596.13;5074367;28;20500;-55
2021/09/17 05:08:51;;;;;;;0.98;0.82;;;;;;;9.22;100.00;99596.13;5074141;28;20087;-56
2021/09/17 05:11:54;;;;;;;2.85;1.25;;;;;;;9.20;100.00;99598.63;5074147;28;20043;-56
2021/09/17 05:14:58;;;;;;;2.65;0.80;;;;;;;9.17;100.00;99589.22;5074214;28;20432;-56
2021/09/17 05:18:01;;;;;;;1.45;0.63;;;;;;;9.13;100.00;99589.41;5074282;28;20162;-56
2021/09/17 05:21:04;;;;;;;1.38;0.63;;;;;;;9.09;100.00;99591.59;5073641;28;20159;-55
2021/09/17 05:24:07;;;;;;;1.83;0.40;;;;;;;9.13;100.00;99597.72;5073759;28;20108;-55
2021/09/17 05:27:14;;;;;;;1.85;0.52;;;;;;;9.13;100.00;99608.06;5073609;28;20039;-55
2021/09/17 05:30:17;;;;;;;2.17;0.75;;;;;;;9.10;100.00;99600.66;5073879;28;20052;-55
2021/09/17 05:33:20;;;;;;;0.65;0.65;;;;;;;9.07;100.00;99599.59;5073373;28;20135;-55
2021/09/17 05:36:23;;;;;;;1.73;1.30;;;;;;;9.08;100.00;99592.81;5072636;28;20182;-55
2021/09/17 05:39:26;;;;;;;0.55;0.55;;;;;;;9.00;100.00;99597.19;5073212;28;20079;-56
2021/09/17 05:42:28;;;;;;;0.65;0.60;;;;;;;8.97;100.00;99598.13;5073330;28;20480;-56
2021/09/17 05:45:31;;;;;;;0.82;0.77;;;;;;;8.95;100.00;99595.03;5073244;28;20034;-55
2021/09/17 05:48:34;;;;;;;2.00;0.98;;;;;;;8.92;100.00;99595.22;5064030;28;20060;-56
2021/09/17 05:51:38;;;;;;;0.80;0.60;;;;;;;8.94;100.00;99599.03;5053161;28;20048;-55
2021/09/17 05:54:41;;;;;;;1.48;0.82;;;;;;;9.03;100.00;99599.00;5070998;28;20554;-56
2021/09/17 05:57:44;;;;;;;6.00;1.00;;;;;;;9.14;100.00;99602.03;5073108;28;20051;-56
2021/09/17 06:00:46;;;;;;;5.40;1.58;;;;;;;9.34;100.00;99597.91;5072807;28;20087;-55
2021/09/17 06:03:49;;;;;;;4.57;1.42;;;;;;;9.51;100.00;99601.78;5073240;28;20043;-56
2021/09/17 06:06:52;;;;;;;6.45;1.02;;;;;;;9.66;100.00;99602.59;5073293;28;20098;-56
2021/09/17 06:09:55;;;;;;;10.23;2.72;;;;;;;9.86;100.00;99594.41;5073298;28;20051;-56
2021/09/17 06:12:58;;;;;;;3.75;1.83;;;;;;;10.03;100.00;99601.03;5073315;28;20133;-56
2021/09/17 06:16:01;;;;;;;8.05;1.92;;;;;;;10.12;100.00;99587.09;5071898;28;20075;-56
2021/09/17 06:19:04;;;;;;;6.43;1.70;;;;;;;10.22;100.00;99594.09;5073055;28;20106;-56
2021/09/17 06:22:07;;;;;;;6.00;2.33;;;;;;;10.32;100.00;99587.19;5072612;28;20123;-56
2021/09/17 06:25:10;;;;;;;8.48;2.58;;;;;;;10.44;100.00;99588.91;5072560;28;20120;-56
2021/09/17 06:28:13;;;;;;;11.35;2.30;;;;;;;10.54;100.00;99584.78;5072535;28;20059;-55
2021/09/17 06:31:16;;;;;;;9.63;2.40;;;;;;;10.62;100.00;99585.91;5072352;28;20114;-56
2021/09/17 06:34:19;;;;;;;6.80;2.35;;;;;;;10.63;100.00;99590.22;5072567;28;20127;-56
2021/09/17 06:37:21;;;;;;;8.48;3.05;;;;;;;10.60;100.00;99591.19;5060693;28;20040;-56
2021/09/17 06:40:26;;;;;;;9.13;1.98;;;;;;;10.62;100.00;99590.72;5052275;28;20201;-55
2021/09/17 06:43:29;;;;;;;4.57;1.33;;;;;;;10.68;100.00;99590.81;5052311;28;20455;-54
2021/09/17 06:46:32;;;;;;;2.85;1.63;;;;;;;10.78;100.00;99595.00;5051921;28;20108;-56
2021/09/17 06:49:34;;;;;;;3.35;1.63;;;;;;;10.84;100.00;99593.06;5052679;28;20052;-57
2021/09/17 06:52:37;;;;;;;4.32;1.45;;;;;;;10.97;100.00;99593.53;5052424;28;20041;-56
2021/09/17 06:55:40;;;;;;;2.65;1.08;;;;;;;11.09;100.00;99584.06;5072202;28;20546;-56
2021/09/17 06:58:43;;;;;;;1.90;1.02;;;;;;;11.19;100.00;99585.50;5072354;28;20063;-55
2021/09/17 07:01:46;;;;;;;1.55;1.10;;;;;;;11.31;100.00;99587.94;5072700;28;20106;-56
2021/09/17 07:04:48;;;;;;;3.40;0.93;;;;;;;11.44;100.00;99579.22;5072368;28;20496;-57
2021/09/17 07:07:58;;;;;;;5.03;1.10;;;;;;;11.58;100.00;99578.38;5072395;28;20511;-56
2021/09/17 07:11:01;;;;;;;3.88;1.02;;;;;;;11.80;100.00;99578.66;5067852;28;20548;-57
2021/09/17 07:14:04;;;;;;;5.22;1.17;;;;;;;12.01;100.00;99582.97;5051750;28;20039;-56
2021/09/17 07:17:07;;;;;;;5.63;1.23;;;;;;;12.13;100.00;99584.59;5052083;28;20115;-57
2021/09/17 07:20:10;;;;;;;3.35;1.70;;;;;;;12.39;100.00;99587.38;5051866;28;20099;-57
2021/09/17 07:23:14;;;;;;;3.60;1.23;;;;;;;12.59;100.00;99584.50;5051779;28;20575;-56
2021/09/17 07:26:17;;;;;;;2.85;1.85;;;;;;;12.76;100.00;99579.81;5051752;28;20082;-57
2021/09/17 07:29:20;;;;;;;2.45;0.85;;;;;;;13.03;100.00;99588.88;5051553;28;20056;-57
2021/09/17 07:32:23;;;;;;;2.72;1.17;;;;;;;13.23;100.00;99589.53;5051718;28;20103;-56
2021/09/17 07:35:26;;;;;;;8.15;2.20;;;;;;;13.40;100.00;99592.44;5051806;28;20044;-57
2021/09/17 07:38:29;;;;;;;8.40;2.42;;;;;;;13.54;100.00;99597.81;5051764;28;20068;-56
2021/09/17 07:41:32;;;;;;;1.85;0.95;;;;;;;13.76;100.00;99596.38;5051789;28;20509;-56
2021/09/17 07:44:36;;;;;;;4.80;1.45;;;;;;;13.90;100.00;99592.63;5051793;28;20048;-56
2021/09/17 07:47:40;;;;;;;7.07;1.42;;;;;;;14.05;100.00;99596.75;5052056;28;20397;-57
2021/09/17 07:50:43;;;;;;;5.03;1.70;;;;;;;14.20;100.00;99593.72;5052027;28;20040;-56
2021/09/17 07:53:46;;;;;;;3.63;1.55;;;;;;;14.32;100.00;99598.06;5062028;28;20461;-57
2021/09/17 07:56:49;;;;;;;4.90;1.02;;;;;;;14.53;100.00;99601.41;5071889;28;20568;-55
2021/09/17 07:59:51;;;;;;;7.53;0.60;;;;;;;14.67;100.00;99611.59;5071750;28;20055;-56
2021/09/17 08:02:54;;;;;;;4.03;1.02;;;;;;;14.78;100.00;99606.75;5047840;28;20098;-57
2021/09/17 08:06:01;;;;;;;6.15;1.40;;;;;;;14.87;100.00;99609.31;5049102;28;20137;-57
2021/09/17 08:09:06;;;;;;;3.42;1.40;;;;;;;15.01;100.00;99613.88;5046473;28;20052;-57
2021/09/17 08:12:09;;;;;;;3.10;0.95;;;;;;;15.20;100.00;99611.31;5044546;28;20044;-53
2021/09/17 08:15:13;;;;;;;1.30;0.68;;;;;;;15.29;100.00;99613.06;5045239;28;20087;-54
2021/09/17 08:18:16;;;;;;;4.72;0.93;;;;;;;15.52;100.00;99606.13;5045429;28;20082;-54
2021/09/17 08:21:19;;;;;;;2.65;0.88;;;;;;;15.61;100.00;99608.66;5045074;28;20342;-55
2021/09/17 08:24:24;;;;;;;2.22;0.77;;;;;;;15.77;100.00;99608.59;5044826;28;20648;-55
2021/09/17 08:27:27;;;;;;;6.13;1.70;;;;;;;15.84;100.00;99615.72;5045261;28;20366;-55
2021/09/17 08:30:30;;;;;;;2.25;0.95;;;;;;;15.87;100.00;99609.06;5043876;28;20079;-53
2021/09/17 08:33:33;;;;;;;2.80;0.57;;;;;;;15.88;100.00;99610.56;5046887;28;20282;-55
2021/09/17 08:36:37;;;;;;;4.13;0.70;;;;;;;15.93;100.00;99604.19;5047671;28;20102;-55
2021/09/17 08:39:40;;;;;;;3.75;1.85;;;;;;;16.02;100.00;99609.50;5044807;28;20422;-54
2021/09/17 08:42:44;;;;;;;1.10;0.70;;;;;;;16.06;100.00;99604.38;5045968;28;20087;-55
2021/09/17 08:45:47;;;;;;;2.95;1.05;;;;;;;16.09;100.00;99597.69;5044832;28;20146;-55
2021/09/17 08:48:51;;;;;;;4.32;0.80;;;;;;;16.11;100.00;99595.16;5045699;28;20447;-54
2021/09/17 08:51:54;;;;;;;2.30;0.82;;;;;;;16.15;100.00;99606.88;5045628;28;21133;-54
2021/09/17 08:54:58;;;;;;;3.53;1.15;;;;;;;16.20;100.00;99608.13;5005487;28;20088;-54
2021/09/17 08:58:01;;;;;;;3.35;1.25;;;;;;;16.16;100.00;99604.81;5006646;28;20099;-55
2021/09/17 09:01:04;;;;;;;1.77;0.50;;;;;;;16.13;100.00;99601.00;5006196;28;20048;-55
2021/09/17 09:04:08;;;;;;;3.50;1.27;;;;;;;16.23;100.00;99596.59;5007382;28;20079;-55
2021/09/17 09:07:15;;;;;;;1.75;0.73;;;;;;;16.29;100.00;99605.75;5008024;28;20036;-55
2021/09/17 09:10:19;;;;;;;5.65;1.40;;;;;;;16.48;100.00;99598.19;5009257;28;20064;-55
2021/09/17 09:13:22;;;;;;;2.20;1.20;;;;;;;16.56;100.00;99599.22;5008391;28;20825;-55
2021/09/17 09:16:25;;;;;;;8.65;1.48;;;;;;;16.66;100.00;99600.41;5007144;28;20057;-55
2021/09/17 09:19:37;;;;;;;5.72;0.43;;;;;;;16.77;100.00;99595.97;5005469;28;20536;-55
2021/09/17 09:22:40;;;;;;;4.40;1.73;;;;;;;16.72;100.00;99596.78;5006226;28;20788;-55
2021/09/17 09:25:57;;;;;;;5.20;1.38;;;;;;;16.76;100.00;99598.03;5007678;28;20044;-55
2021/09/17 09:29:00;;;;;;;3.05;1.23;;;;;;;16.92;100.00;99599.91;5005998;28;20268;-55
2021/09/17 09:32:04;;;;;;;4.72;0.68;;;;;;;17.09;100.00;99591.31;5008938;28;20140;-55
2021/09/17 09:35:09;;;;;;;8.73;1.50;;;;;;;17.34;100.00;99601.28;5007912;28;20075;-55
2021/09/17 09:38:26;;;;;;;5.53;1.70;;;;;;;17.46;100.00;99585.78;5007992;28;20062;-55
2021/09/17 09:41:33;;;;;;;5.43;1.05;;;;;;;17.49;100.00;99596.00;5006005;28;20941;-55
2021/09/17 09:44:36;;;;;;;1.20;0.82;;;;;;;17.65;100.00;99595.06;5008585;28;20943;-55
2021/09/17 09:47:41;;;;;;;5.90;1.13;;;;;;;17.88;100.00;99593.50;5005999;28;20193;-55
2021/09/17 09:50:44;;;;;;;3.75;1.08;;;;;;;17.97;100.00;99593.13;5008170;28;20043;-55
2021/09/17 09:53:47;;;;;;;8.88;1.23;;;;;;;18.03;100.00;99593.81;5029294;28;20039;-56
2021/09/17 09:56:52;;;;;;;2.45;0.85;;;;;;;18.17;100.00;99594.63;5047992;28;20090;-55
2021/09/17 09:59:59;;;;;;;2.03;0.63;;;;;;;18.30;100.00;99596.78;5047621;28;20052;-55
2021/09/17 10:03:04;;;;;;;5.28;1.35;;;;;;;18.53;100.00;99597.97;5046957;28;20622;-55
2021/09/17 10:06:07;;;;;;;3.55;1.52;;;;;;;18.65;100.00;99588.03;5047255;28;20089;-55
2021/09/17 10:09:11;;;;;;;2.22;0.90;;;;;;;18.77;100.00;99586.56;5046753;28;20079;-55
2021/09/17 10:12:14;;;;;;;8.32;0.90;;;;;;;19.15;100.00;99587.91;5046772;28;20532;-55
2021/09/17 10:15:19;;;;;;;3.20;0.98;;;;;;;19.36;100.00;99593.72;5044811;28;20106;-55
2021/09/17 10:18:22;;;;;;;5.10;0.95;;;;;;;19.35;100.00;99590.16;5045110;28;20087;-55
2021/09/17 10:21:52;;;;;;;1.60;0.65;;;;;;;19.12;100.00;99586.19;5046233;28;20038;-55
2021/09/17 10:37:51;;;;;;;4.80;1.52;;;;;;;19.26;100.00;99584.91;6294390;22;1324088;-58
2021/09/17 10:41:01;;;;;;;1.33;1.05;;;;;;;19.61;100.00;99580.91;6347677;22;20017;-58
2021/09/17 10:44:04;;;;;;;6.53;1.58;;;;;;;19.96;100.00;99579.66;6348167;22;20022;-57
2021/09/17 10:47:07;;;;;;;1.63;0.93;;;;;;;19.88;100.00;99578.81;6347506;22;20514;-58
2021/09/17 10:50:13;;;;;;;1.60;0.95;;;;;;;19.79;100.00;99577.19;6347681;22;20449;-59
2021/09/17 10:53:39;;;;;;;3.63;1.30;;;;;;;19.83;100.00;99577.63;6347679;22;20025;-59
2021/09/17 10:56:47;;;;;;;1.17;0.45;;;;;;;19.92;100.00;99585.66;6314787;22;20044;-58
2021/09/17 10:59:52;;;;;;;1.15;0.38;;;;;;;19.84;100.00;99589.69;6347620;22;20421;-58
2021/09/17 11:02:55;;;;;;;5.07;1.13;;;;;;;19.90;100.00;99584.66;6320528;22;20654;-58
2021/09/17 11:06:26;;;;;;;1.27;0.63;;;;;;;19.95;100.00;99589.41;6318090;22;20319;-56
2021/09/17 11:09:45;;;;;;;3.22;0.68;;;;;;;20.00;100.00;99585.72;6320968;22;20671;-57
2021/09/17 11:12:48;;;;;;;1.38;0.32;;;;;;;19.87;100.00;99582.94;6335187;22;20080;-56
2021/09/17 11:15:51;;;;;;;1.25;0.32;;;;;;;19.85;100.00;99586.31;6346433;22;20152;-58
2021/09/17 11:19:01;;;;;;;0.20;0.10;;;;;;;19.91;100.00;99583.34;6346953;22;20661;-58
2021/09/17 11:22:06;;;;;;;;;;;;;;;20.01;100.00;99584.44;6346589;22;20049;-58
2021/09/17 11:25:10;;;;;;;0.20;0.10;;;;;;;20.07;100.00;99577.34;6344672;22;19991;-57
2021/09/17 11:28:19;;;;;;;2.25;0.73;;;;;;;20.33;100.00;99573.69;6346197;22;20051;-58
2021/09/17 11:31:22;;;;;;;1.63;0.20;;;;;;;20.40;100.00;99568.09;6327066;22;20068;-58
2021/09/17 11:34:32;;;;;;;1.25;0.38;;;;;;;20.47;100.00;99563.81;6346034;22;20025;-59
2021/09/17 11:37:39;;;;;;;0.10;0.10;;;;;;;20.62;100.00;99555.47;6340933;22;20113;-57
2021/09/17 11:40:54;;;;;;;8.48;1.05;;;;;;;20.82;100.00;99551.88;6320774;22;20048;-59
2021/09/17 11:43:57;;;;;;;1.60;0.80;;;;;;;20.53;100.00;99553.13;6339352;22;20307;-58
2021/09/17 11:47:03;;;;;;;1.92;0.20;;;;;;;20.54;100.00;99554.66;6339478;22;20087;-58
2021/09/17 11:50:15;;;;;;;1.40;0.90;;;;;;;20.77;100.00;99552.03;6339679;22;20143;-58
2021/09/17 11:53:18;;;;;;;1.45;0.10;;;;;;;20.79;100.00;99541.66;6339692;22;20077;-57
2021/09/17 11:56:21;;;;;;;1.75;0.43;;;;;;;20.69;100.00;99543.47;6320485;22;20084;-58
2021/09/17 11:59:50;;;;;;;2.30;0.57;;;;;;;20.48;100.00;99547.63;6339668;22;20025;-58
2021/09/17 12:02:56;;;;;;;12.02;1.75;;;;;;;20.58;100.00;99540.94;6339973;22;20376;-58
2021/09/17 12:06:00;;;;;;;4.20;0.85;;;;;;;20.62;100.00;99541.34;6339968;22;20025;-57
2021/09/17 12:09:03;;;;;;;5.10;0.80;;;;;;;20.59;100.00;99545.28;6339908;22;20025;-58
2021/09/17 12:12:06;;;;;;;1.20;0.25;;;;;;;20.72;100.00;99541.63;6339633;22;20022;-58
2021/09/17 12:15:11;;;;;;;3.53;1.05;;;;;;;20.74;100.00;99536.94;6340095;22;20021;-57
2021/09/17 12:18:21;;;;;;;2.75;0.63;;;;;;;21.01;100.00;99531.81;6339710;22;20167;-58
2021/09/17 12:21:23;;;;;;;3.42;0.80;;;;;;;21.26;100.00;99532.22;6339411;22;20022;-58
2021/09/17 12:24:27;;;;;;;3.15;0.85;;;;;;;21.25;100.00;99537.13;6339738;22;20026;-58
2021/09/17 12:27:31;;;;;;;3.30;1.27;;;;;;;21.27;100.00;99528.81;6334391;22;20022;-57
2021/09/17 12:30:36;;;;;;;14.10;2.97;;;;;;;21.01;100.00;99526.16;6339227;22;20030;-49
2021/09/17 12:33:39;;;;;;;15.13;2.13;;;;;;;20.93;100.00;99520.47;6339060;22;20613;-48
2021/09/17 12:36:48;;;;;;;6.03;1.75;;;;;;;20.89;100.00;99520.06;6338856;22;20025;-57
2021/09/17 12:39:50;;;;;;;2.78;0.55;;;;;;;20.75;100.00;99521.44;6338462;22;20026;-58
2021/09/17 12:43:27;;;;;;;3.70;1.77;;;;;;;20.72;100.00;99510.50;6338412;22;20044;-57
2021/09/17 12:46:33;;;;;;;8.20;1.85;;;;;;;20.78;100.00;99508.25;6319151;22;20064;-58
2021/09/17 12:49:36;;;;;;;5.63;1.52;;;;;;;20.69;100.00;99506.69;6338667;22;20102;-57
2021/09/17 12:52:44;;;;;;;3.33;1.20;;;;;;;20.76;100.00;99499.56;6339021;22;20391;-57
2021/09/17 12:56:00;;;;;;;2.30;0.50;;;;;;;20.79;100.00;99504.13;6339214;22;20067;-57
2021/09/17 12:59:11;;;;;;;5.50;1.05;;;;;;;20.77;100.00;99493.34;6338987;22;20080;-57
2021/09/17 13:02:14;;;;;;;6.75;1.55;;;;;;;20.86;100.00;99498.50;6339211;22;20103;-58
2021/09/17 13:05:16;;;;;;;5.35;1.02;;;;;;;20.97;100.00;99495.38;6338633;22;20022;-56
2021/09/17 13:08:20;;;;;;;5.75;1.15;;;;;;;21.13;100.00;99499.88;6338993;22;20507;-55
2021/09/17 13:11:23;;;;;;;1.83;0.88;;;;;;;21.36;100.00;99502.03;6339280;22;20021;-55
2021/09/17 13:14:26;;;;;;;1.65;0.85;;;;;;;21.41;100.00;99489.81;6338814;22;20041;-55
2021/09/17 13:17:29;;;;;;;0.25;0.10;;;;;;;21.20;100.00;99486.31;6339029;22;20542;-56
2021/09/17 13:20:37;;;;;;;0.98;0.52;;;;;;;21.13;100.00;99485.72;6338881;22;20022;-55
2021/09/17 13:23:40;;;;;;;0.95;0.30;;;;;;;21.13;100.00;99482.88;6339130;22;20041;-55
2021/09/17 13:26:43;;;;;;;2.50;0.40;;;;;;;21.12;100.00;99477.75;6338934;22;20099;-56
2021/09/17 13:29:46;;;;;;;0.98;0.25;;;;;;;20.87;100.00;99474.56;6339229;22;20022;-56
2021/09/17 13:32:49;;;;;;;1.20;0.25;;;;;;;21.26;100.00;99472.72;6338787;22;20022;-56
2021/09/17 13:35:52;;;;;;;1.13;0.20;;;;;;;21.20;100.00;99466.47;6338018;22;20351;-56
2021/09/17 13:38:55;;;;;;;1.48;0.52;;;;;;;21.36;100.00;99473.72;6337599;22;20026;-55
2021/09/17 13:41:58;;;;;;;0.50;0.22;;;;;;;21.32;100.00;99465.59;6318361;22;20355;-56
2021/09/17 13:45:03;;;;;;;0.65;0.38;;;;;;;21.07;100.00;99453.19;6336964;22;20026;-57
2021/09/17 13:48:06;;;;;;;3.45;0.52;;;;;;;20.92;100.00;99464.41;6337060;22;20116;-55
2021/09/17 13:51:09;;;;;;;2.13;0.50;;;;;;;21.22;100.00;99458.19;6337798;22;20029;-56
2021/09/17 13:54:11;;;;;;;0.10;0.03;;;;;;;21.26;100.00;99458.56;6338494;22;20056;-55
2021/09/17 13:57:14;;;;;;;0.80;0.08;;;;;;;21.27;100.00;99457.25;6338780;22;20025;-55
2021/09/17 14:00:18;;;;;;;2.33;0.20;;;;;;;21.41;100.00;99453.75;6338676;22;20204;-56
2021/09/17 14:03:21;;;;;;;3.88;0.47;;;;;;;21.50;100.00;99449.63;6339022;22;20067;-56
2021/09/17 14:06:24;;;;;;;1.88;0.40;;;;;;;21.45;100.00;99442.03;6338989;22;20339;-55
2021/09/17 14:09:27;;;;;;;0.45;0.10;;;;;;;21.58;100.00;99433.38;6338654;22;20338;-56
2021/09/17 14:12:30;;;;;;;14.52;0.80;;;;;;;21.40;100.00;99431.63;6338320;22;20026;-55
2021/09/17 14:15:33;;;;;;;2.35;0.20;;;;;;;21.39;100.00;99430.13;6338810;22;20084;-55
2021/09/17 14:18:36;;;;;;;6.32;0.75;;;;;;;21.66;100.00;99429.25;6338910;22;20022;-55
2021/09/17 14:21:39;;;;;;;0.47;0.10;;;;;;;21.83;100.00;99437.25;6338794;22;20698;-55
2021/09/17 14:24:42;;;;;;;0.55;0.10;;;;;;;22.03;100.00;99430.69;6338885;22;20311;-55
2021/09/17 14:27:45;;;;;;;1.60;0.20;;;;;;;22.04;100.00;99425.78;6338932;22;20510;-55
2021/09/17 14:30:48;;;;;;;1.70;0.32;;;;;;;21.89;100.00;99418.00;6338922;22;20053;-55